Andover, Illinois
Current Conditions -  °F | °C
As of 5:52 PM on Wednesday 26 Nov 2014 (Local Time) from KMLI Reporting Station
Overcast Overcast  
Wind Chill: 19°   Ceiling: 1500
Heat Index: 28°   Visibility: 7mi
Dew Point: 22°   Wind: 10mph
Humidity: 78%   Direction: 50°NE
Pressure: 30.15"   Gusts: NA
Location:  41.29°N, 90.29°W
Report Text: KMLI 262352Z 05009KT 7SM OVC015 M02/M06 A3015 RMK AO2 SLP218 T10221056 11017 21022 53026 $
Loading
Personal Weather Stations






























Interactive Weather Map New forecast layout! Learn more

10-Day Weather Forecast

Advertisements
Track Severe Weather on mobile